Time;durP1;ratioP1;P1;durP2;ratioP2;P2;SDS_P1;SDS_P2;PMS_P1;PMS_P2;Temp;Humidity;BMP_temperature;BMP_pressure;BME280_temperature;BME280_humidity;BME280_pressure;Samples;Min_cycle;Max_cycle;Signal;HPM_P1;HPM_P2
2023/10/26 00:01:34;;;;;;;;;4.00;4.00;;;;;16.54;84.45;98974.72;6217635;22;45391;-81
2023/10/26 00:03:59;;;;;;;;;4.33;4.00;;;;;16.58;84.53;98971.88;6220824;22;45428;-81
2023/10/26 00:06:25;;;;;;;;;4.00;4.00;;;;;16.57;84.41;98963.88;6217895;22;47972;-80
2023/10/26 00:08:50;;;;;;;;;4.33;4.33;;;;;16.50;84.35;98951.59;6215030;22;45499;-81
2023/10/26 00:11:16;;;;;;;;;4.00;4.00;;;;;16.51;84.77;98948.88;6216149;22;45395;-81
2023/10/26 00:13:41;;;;;;;;;6.67;5.00;;;;;16.47;84.68;98952.59;6191137;22;45345;-82
2023/10/26 00:16:07;;;;;;;;;5.00;5.00;;;;;16.51;85.06;98959.59;6214790;22;46885;-81
2023/10/26 00:18:32;;;;;;;;;7.50;7.50;;;;;16.46;85.21;98950.88;6217301;22;45358;-81
2023/10/26 00:20:59;;;;;;;;;5.33;5.00;;;;;16.60;85.37;98950.31;6188968;22;45352;-81
2023/10/26 00:23:25;;;;;;;;;6.67;6.67;;;;;16.47;85.69;98947.25;6214996;22;45360;-81
2023/10/26 00:25:51;;;;;;;;;4.33;4.33;;;;;16.44;85.91;98947.38;6215984;22;45348;-83
2023/10/26 00:28:16;;;;;;;;;5.00;5.00;;;;;16.44;85.60;98941.13;6212703;22;45479;-82
2023/10/26 00:30:42;;;;;;;;;8.67;8.33;;;;;16.42;85.68;98933.16;6189890;22;45472;-81
2023/10/26 00:33:08;;;;;;;;;8.33;7.33;;;;;16.43;85.61;98944.75;6216757;22;45511;-81
2023/10/26 00:35:34;;;;;;;;;11.00;9.67;;;;;16.37;85.60;98927.94;6216296;22;45020;-80
2023/10/26 00:37:59;;;;;;;;;7.00;7.00;;;;;16.39;85.73;98936.81;6218073;22;45403;-80
2023/10/26 00:40:25;;;;;;;;;8.00;7.00;;;;;16.41;85.68;98936.75;6213907;22;45651;-80
2023/10/26 00:42:50;;;;;;;;;7.33;7.00;;;;;16.39;85.57;98934.13;6213771;22;45346;-80
2023/10/26 00:45:15;;;;;;;;;11.33;8.33;;;;;16.41;85.68;98920.66;6191168;22;47039;-81
2023/10/26 00:47:44;;;;;;;;;7.67;7.33;;;;;16.40;85.84;98919.78;6191410;22;45415;-81
2023/10/26 00:50:10;;;;;;;;;10.00;10.00;;;;;16.37;85.78;98927.94;6217382;22;45265;-82
2023/10/26 00:52:37;;;;;;;;;6.00;6.00;;;;;16.45;87.64;98927.66;6219457;22;45307;-81
2023/10/26 00:55:06;;;;;;;;;7.00;7.00;;;;;16.44;86.80;98925.00;6217182;22;47473;-81
2023/10/26 00:57:32;;;;;;;;;10.33;6.67;;;;;16.25;87.59;98920.38;6215362;22;45382;-80
2023/10/26 00:59:58;;;;;;;;;6.00;6.00;;;;;16.32;87.43;98915.63;6217468;22;44803;-80
2023/10/26 01:02:25;;;;;;;;;12.00;10.00;;;;;16.31;88.44;98903.16;6214878;22;45445;-82
2023/10/26 01:04:51;;;;;;;;;13.67;10.00;;;;;16.18;89.31;98919.72;6214773;22;45335;-81
2023/10/26 01:07:17;;;;;;;;;10.25;9.75;;;;;16.11;90.04;98906.63;6213461;22;45526;-82
2023/10/26 01:09:42;;;;;;;;;10.33;8.67;;;;;16.06;90.44;98909.47;6219058;22;45467;-80
2023/10/26 01:12:08;;;;;;;;;8.00;8.00;;;;;16.05;91.14;98914.88;6215153;22;45452;-80
2023/10/26 01:14:34;;;;;;;;;9.33;7.67;;;;;16.08;91.30;98912.06;6215322;22;47748;-80
2023/10/26 01:17:01;;;;;;;;;11.00;7.33;;;;;16.13;92.29;98910.97;6218070;22;45493;-81
2023/10/26 01:22:49;;;;;;;;;9.00;6.67;;;;;16.18;93.10;98914.38;6217907;22;45514;-81
2023/10/26 01:25:15;;;;;;;;;7.67;7.33;;;;;16.00;93.96;98913.25;6190406;22;47863;-81
2023/10/26 01:27:40;;;;;;;;;7.33;7.33;;;;;15.98;98.65;98909.75;6215791;22;44864;-81
2023/10/26 01:30:06;;;;;;;;;7.67;7.67;;;;;15.96;98.62;98910.75;6218172;22;45146;-81
2023/10/26 01:32:33;;;;;;;;;7.33;5.67;;;;;16.01;100.00;98906.09;6218695;22;45265;-81
2023/10/26 01:34:59;;;;;;;;;7.33;7.33;;;;;15.95;100.00;98906.31;6216203;22;45428;-81
2023/10/26 01:37:25;;;;;;;;;6.67;6.00;;;;;15.67;100.00;98885.84;6216137;22;45419;-81
2023/10/26 01:39:50;;;;;;;;;6.00;6.00;;;;;15.72;100.00;98891.06;6214068;22;45435;-81
2023/10/26 01:42:15;;;;;;;;;8.00;8.00;;;;;15.63;100.00;98889.56;6215433;22;45315;-80
2023/10/26 01:44:43;;;;;;;;;9.00;7.33;;;;;15.56;100.00;98888.06;6188258;22;46900;-80
2023/10/26 01:47:10;;;;;;;;;9.33;6.33;;;;;15.59;100.00;98890.59;6213467;22;45452;-82
2023/10/26 01:49:35;;;;;;;;;6.67;6.67;;;;;15.57;100.00;98890.69;6189180;22;45440;-83
2023/10/26 01:52:00;;;;;;;;;9.00;9.00;;;;;15.53;100.00;98880.13;6212458;22;45503;-80
2023/10/26 01:54:26;;;;;;;;;5.00;5.00;;;;;15.55;100.00;98892.53;6188540;22;47283;-80
2023/10/26 01:56:51;;;;;;;;;9.00;9.00;;;;;15.51;100.00;98887.34;6189594;22;45412;-81
2023/10/26 01:59:17;;;;;;;;;9.33;7.33;;;;;15.46;100.00;98875.94;6190925;22;45681;-81
2023/10/26 02:01:42;;;;;;;;;6.33;6.33;;;;;15.49;100.00;98878.47;6190268;22;45521;-84
2023/10/26 02:04:07;;;;;;;;;7.33;7.33;;;;;15.42;100.00;98868.94;6217387;22;47263;-81
2023/10/26 02:06:33;;;;;;;;;10.67;9.67;;;;;15.41;100.00;98873.38;6218753;22;45642;-81
2023/10/26 02:08:58;;;;;;;;;8.67;7.33;;;;;15.39;100.00;98868.09;6195334;22;45378;-84
2023/10/26 02:11:24;;;;;;;;;8.33;8.00;;;;;15.35;100.00;98853.06;6199175;22;44812;-83
2023/10/26 02:13:49;;;;;;;;;10.00;10.00;;;;;15.35;100.00;98846.81;6227099;22;45274;-84
2023/10/26 02:16:16;;;;;;;;;8.00;8.00;;;;;15.40;100.00;98850.22;6225257;22;44828;-84
2023/10/26 02:18:44;;;;;;;;;8.67;8.67;;;;;15.50;100.00;98856.13;6224380;22;44748;-84
2023/10/26 02:21:09;;;;;;;;;11.00;11.00;;;;;15.37;100.00;98851.22;6199384;22;44847;-85
2023/10/26 02:23:35;;;;;;;;;9.00;9.00;;;;;15.40;100.00;98853.75;6227621;22;45258;-84
2023/10/26 02:26:02;;;;;;;;;11.33;11.33;;;;;15.42;100.00;98863.56;6223410;22;44913;-84
2023/10/26 02:28:27;;;;;;;;;12.00;12.00;;;;;15.40;100.00;98844.88;6223028;22;45726;-83
2023/10/26 02:30:53;;;;;;;;;12.67;11.33;;;;;15.43;100.00;98846.56;6222842;22;44813;-80
2023/10/26 02:33:18;;;;;;;;;5.00;5.00;;;;;15.44;100.00;98842.97;6222093;22;45198;-80
2023/10/26 02:35:44;;;;;;;;;11.33;11.00;;;;;15.46;100.00;98833.06;6220546;22;45362;-80
2023/10/26 02:38:09;;;;;;;;;11.00;11.00;;;;;15.42;100.00;98831.44;6217498;22;44849;-80
2023/10/26 02:40:36;;;;;;;;;9.33;9.33;;;;;15.48;100.00;98821.34;6220076;22;45257;-80
2023/10/26 02:43:02;;;;;;;;;9.67;8.67;;;;;15.49;100.00;98832.94;6214098;22;46741;-80
2023/10/26 02:45:27;;;;;;;;;10.00;10.00;;;;;15.47;100.00;98816.03;6187785;22;45416;-80
2023/10/26 02:47:53;;;;;;;;;9.00;9.00;;;;;15.46;100.00;98812.50;6165296;23;44851;-80
2023/10/26 02:50:18;;;;;;;;;11.67;11.33;;;;;15.50;100.00;98811.44;6193346;22;44855;-80
2023/10/26 02:52:44;;;;;;;;;5.00;5.00;;;;;15.55;100.00;98805.91;6190127;23;44964;-80
2023/10/26 02:55:09;;;;;;;;;9.67;9.67;;;;;15.50;100.00;98798.06;6189266;23;45383;-80
2023/10/26 02:57:35;;;;;;;;;11.00;11.00;;;;;15.52;100.00;98798.00;6160641;23;45368;-80
2023/10/26 03:00:00;;;;;;;;;10.00;10.00;;;;;15.51;100.00;98793.56;6189373;23;44713;-80
2023/10/26 03:02:26;;;;;;;;;8.00;8.00;;;;;15.53;100.00;98781.88;6187901;23;46916;-80
2023/10/26 03:04:51;;;;;;;;;12.67;11.00;;;;;15.59;100.00;98770.03;6189650;22;44837;-80
2023/10/26 03:07:22;;;;;;;;;10.00;9.00;;;;;15.59;100.00;98765.56;6163474;23;45318;-81
2023/10/26 03:09:51;;;;;;;;;9.67;9.67;;;;;15.84;100.00;98769.16;6190171;23;45312;-81
2023/10/26 03:12:19;;;;;;;;;11.00;11.00;;;;;15.75;100.00;98762.31;6164557;22;46165;-85
2023/10/26 03:14:44;;;;;;;;;9.67;9.67;;;;;15.68;100.00;98758.09;6195864;22;45277;-84
2023/10/26 03:17:14;;;;;;;;;10.67;10.67;;;;;15.70;100.00;98754.44;6194749;23;44901;-84
2023/10/26 03:19:40;;;;;;;;;9.67;9.67;;;;;15.73;100.00;98757.00;6170691;23;45316;-84
2023/10/26 03:35:03;;;;;;;;;9.33;8.67;;;;;15.92;100.00;98732.19;6159690;22;45618;-81
2023/10/26 03:37:30;;;;;;;;;8.00;8.00;;;;;16.02;100.00;98741.59;6222542;22;44885;-82
2023/10/26 03:39:55;;;;;;;;;12.00;9.33;;;;;15.89;100.00;98740.34;6222272;22;45417;-82
2023/10/26 03:42:23;;;;;;;;;6.00;6.00;;;;;16.10;100.00;98738.63;6245505;22;48072;-82
2023/10/26 03:44:49;;;;;;;;;7.00;7.00;;;;;15.87;100.00;98731.47;6248820;22;45737;-82
2023/10/26 03:47:14;;;;;;;;;9.67;8.33;;;;;15.91;100.00;98735.78;6248690;22;45093;-81
2023/10/26 03:49:40;;;;;;;;;10.00;7.33;;;;;15.93;100.00;98744.63;6221342;22;44750;-81
2023/10/26 03:52:05;;;;;;;;;8.67;8.67;;;;;15.92;100.00;98742.91;6247880;22;45703;-81
2023/10/26 03:54:31;;;;;;;;;8.67;8.00;;;;;15.93;100.00;98737.47;6220234;22;45441;-81
2023/10/26 03:56:57;;;;;;;;;5.00;5.00;;;;;15.84;100.00;98737.84;6220792;22;44805;-82
2023/10/26 03:59:57;;;;;;;;;10.67;8.67;;;;;16.17;100.00;98730.22;6247162;22;45412;-81
2023/10/26 04:02:22;;;;;;;;;8.00;8.00;;;;;15.84;100.00;98723.56;6221848;22;47566;-82
2023/10/26 04:04:50;;;;;;;;;6.67;6.67;;;;;15.89;100.00;98709.03;6250236;22;45378;-82
2023/10/26 04:07:15;;;;;;;;;6.33;6.33;;;;;17.28;100.00;98709.38;6223090;22;45269;-82
2023/10/26 04:09:41;;;;;;;;;9.67;9.67;;;;;17.37;100.00;98714.34;6249727;22;45406;-82
2023/10/26 04:12:56;;;;;;;;;9.00;9.00;;;;;17.58;100.00;98720.50;6248057;22;45292;-83
2023/10/26 04:15:21;;;;;;;;;8.00;5.00;;;;;17.04;100.00;98714.03;6249496;22;45416;-80
2023/10/26 04:17:47;;;;;;;;;8.00;7.33;;;;;17.00;100.00;98713.28;6220998;22;45295;-80
2023/10/26 04:20:13;;;;;;;;;10.00;10.00;;;;;16.99;100.00;98714.25;6219940;22;45470;-82
2023/10/26 04:22:38;;;;;;;;;5.33;5.33;;;;;16.90;100.00;98714.66;6217658;22;47019;-80
2023/10/26 04:25:04;;;;;;;;;10.00;10.00;;;;;17.08;100.00;98721.00;6245125;22;45505;-80
2023/10/26 04:27:33;;;;;;;;;8.33;7.33;;;;;17.21;100.00;98691.81;6217642;22;45391;-80
2023/10/26 04:29:59;;;;;;;;;6.00;5.33;;;;;16.94;100.00;98699.28;6245403;22;44903;-81
2023/10/26 04:32:24;;;;;;;;;8.67;7.33;;;;;16.93;100.00;98698.41;6242405;22;47549;-80
2023/10/26 04:34:49;;;;;;;;;9.00;5.00;;;;;16.92;100.00;98696.66;6226059;22;45367;-80
2023/10/26 04:37:15;;;;;;;;;8.67;6.67;;;;;16.90;100.00;98693.16;6248176;22;45348;-81
2023/10/26 04:39:43;;;;;;;;;6.33;5.00;;;;;16.97;100.00;98700.03;6249524;22;45321;-81
2023/10/26 04:42:12;;;;;;;;;7.67;7.67;;;;;17.27;100.00;98696.91;6221501;22;48505;-80
2023/10/26 04:44:38;;;;;;;;;4.33;4.33;;;;;17.09;100.00;98687.84;6245737;22;45378;-81
2023/10/26 04:47:04;;;;;;;;;5.00;5.00;;;;;17.11;100.00;98683.28;6249413;22;45404;-80
2023/10/26 04:52:58;;;;;;;;;5.67;5.00;;;;;17.66;100.00;98685.22;6248336;22;45359;-81
2023/10/26 04:55:29;;;;;;;;;5.00;5.00;;;;;17.35;100.00;98683.97;6245620;22;45388;-81
2023/10/26 04:57:55;;;;;;;;;6.00;6.00;;;;;17.42;100.00;98679.19;6247305;22;45359;-81
2023/10/26 05:00:20;;;;;;;;;3.00;3.00;;;;;17.48;100.00;98686.09;6248304;22;45317;-80
2023/10/26 05:02:46;;;;;;;;;3.25;3.00;;;;;17.48;100.00;98680.72;6246474;22;45370;-81
2023/10/26 05:05:11;;;;;;;;;2.00;2.00;;;;;17.57;100.00;98674.88;6221009;22;45328;-81
2023/10/26 05:07:36;;;;;;;;;1.00;1.00;;;;;17.61;100.00;98671.09;6249599;22;45355;-80
2023/10/26 05:10:03;;;;;;;;;2.50;2.50;;;;;17.69;100.00;98658.16;6221791;22;45470;-81
2023/10/26 05:12:29;;;;;;;;;2.00;2.00;;;;;17.75;100.00;98659.69;6248110;22;47375;-81
2023/10/26 05:18:36;;;;;;;;;1.00;1.00;;;;;17.95;99.21;98650.69;6248515;22;45428;-81
2023/10/26 05:21:02;;;;;;;;;1.50;1.50;;;;;18.02;98.99;98644.06;6221221;22;45314;-81
2023/10/26 05:23:27;;;;;;;;;1.00;1.00;;;;;18.06;98.72;98648.34;6249510;22;45629;-81
2023/10/26 05:25:52;;;;;;;;;1.50;1.25;;;;;18.06;99.16;98652.84;6221911;22;46098;-81
2023/10/26 05:28:18;;;;;;;;;3.00;3.00;;;;;18.13;99.06;98649.75;6221831;22;45426;-81
2023/10/26 05:30:43;;;;;;;;;1.25;1.25;;;;;18.16;98.81;98644.22;6220474;22;45352;-82
2023/10/26 05:33:09;;;;;;;;;1.33;1.33;;;;;18.21;99.13;98652.06;6218361;22;46833;-80
2023/10/26 05:35:35;;;;;;;;;1.00;1.00;;;;;18.26;98.93;98641.06;6220768;22;45514;-79
2023/10/26 05:38:00;;;;;;;;;1.25;1.00;;;;;18.28;99.03;98647.22;6219687;22;45431;-81
2023/10/26 05:40:27;;;;;;;;;2.00;1.00;;;;;18.63;98.98;98644.56;6219469;22;45418;-81
2023/10/26 05:42:53;;;;;;;;;0.00;0.00;;;;;18.39;98.66;98644.88;6192528;22;46651;-81
2023/10/26 05:45:18;;;;;;;;;0.00;0.00;;;;;18.41;98.75;98637.59;6190744;22;45283;-81
2023/10/26 05:47:43;;;;;;;;;1.00;1.00;;;;;18.43;99.10;98632.13;6192642;22;45362;-80
2023/10/26 05:50:10;;;;;;;;;0.75;0.75;;;;;18.49;98.99;98651.50;6192902;22;45276;-80
2023/10/26 05:52:36;;;;;;;;;1.00;1.00;;;;;18.48;99.31;98660.56;6192870;22;47247;-81
2023/10/26 05:55:03;;;;;;;;;1.00;1.00;;;;;18.73;99.63;98664.66;6220309;22;45538;-80
2023/10/26 05:57:29;;;;;;;;;2.00;2.00;;;;;18.49;99.37;98659.59;6193265;22;45367;-80
2023/10/26 05:59:54;;;;;;;;;1.00;1.00;;;;;18.52;99.44;98672.00;6219706;22;45335;-80
2023/10/26 06:02:19;;;;;;;;;0.00;0.00;;;;;18.52;99.35;98672.00;6191936;22;47710;-82
2023/10/26 06:08:07;;;;;;;;;2.00;0.00;;;;;18.27;100.00;98670.59;6221218;22;45467;-81
2023/10/26 06:10:33;;;;;;;;;0.00;0.00;;;;;18.39;100.00;98682.56;6195098;22;45353;-81
2023/10/26 06:12:59;;;;;;;;;1.00;1.00;;;;;18.19;100.00;98705.06;6193782;22;48125;-86
2023/10/26 06:15:26;;;;;;;;;0.75;0.75;;;;;18.06;99.39;98696.75;6193716;22;45435;-85
2023/10/26 06:17:53;;;;;;;;;0.00;0.00;;;;;18.29;97.08;98714.44;6169343;22;45351;-84
2023/10/26 06:20:21;;;;;;;;;0.00;0.00;;;;;18.09;95.90;98701.97;6193686;22;45270;-84
2023/10/26 06:22:47;;;;;;;;;0.25;0.25;;;;;18.03;95.53;98709.47;6221136;22;45365;-85
2023/10/26 06:25:13;;;;;;;;;2.75;2.75;;;;;18.00;95.23;98702.44;6220712;22;45452;-82
2023/10/26 06:27:38;;;;;;;;;2.50;1.50;;;;;18.04;95.14;98698.66;6222320;22;45354;-81
2023/10/26 06:30:04;;;;;;;;;0.00;0.00;;;;;18.07;94.69;98703.84;6223596;22;45443;-81
2023/10/26 06:32:30;;;;;;;;;3.50;1.75;;;;;17.99;94.18;98703.38;6195128;22;47143;-81
2023/10/26 06:35:02;;;;;;;;;1.75;1.00;;;;;18.08;93.86;98702.94;6198233;22;45340;-81
2023/10/26 06:37:29;;;;;;;;;3.50;0.75;;;;;18.05;93.09;98716.50;6251806;22;45548;-81
2023/10/26 06:39:54;;;;;;;;;2.00;2.00;;;;;17.99;92.50;98716.81;6224420;22;45468;-80
2023/10/26 06:42:20;;;;;;;;;0.25;0.25;;;;;17.98;92.37;98704.31;6254598;22;45326;-85
2023/10/26 06:44:46;;;;;;;;;2.25;1.00;;;;;17.94;92.32;98717.03;6225614;22;45415;-83
2023/10/26 06:47:12;;;;;;;;;3.25;1.00;;;;;17.88;91.76;98711.97;6224529;22;44856;-84
2023/10/26 06:49:41;;;;;;;;;0.75;0.75;;;;;17.87;91.59;98720.97;6224562;22;44817;-85
2023/10/26 06:52:07;;;;;;;;;5.00;2.75;;;;;17.86;91.61;98729.13;6223339;22;46843;-84
2023/10/26 06:54:32;;;;;;;;;4.00;4.00;;;;;17.91;92.15;98735.13;6226954;22;45383;-83
2023/10/26 06:56:59;;;;;;;;;3.00;1.00;;;;;17.93;91.82;98739.50;6227791;22;45360;-83
2023/10/26 06:59:25;;;;;;;;;1.25;1.00;;;;;18.03;91.75;98749.81;6256216;22;45393;-84
2023/10/26 07:01:51;;;;;;;;;4.00;2.75;;;;;18.11;91.60;98753.88;6234810;22;47487;-84
2023/10/26 07:04:16;;;;;;;;;5.50;3.75;;;;;18.00;90.89;98737.41;6229561;22;44883;-83
2023/10/26 07:06:46;;;;;;;;;5.00;2.25;;;;;18.22;91.04;98749.78;6227351;22;44815;-83
2023/10/26 07:09:11;;;;;;;;;4.75;4.00;;;;;18.06;90.46;98758.63;6225184;22;44907;-83
2023/10/26 07:11:37;;;;;;;;;4.00;3.00;;;;;18.02;89.69;98753.44;6223849;22;45257;-84
2023/10/26 07:14:05;;;;;;;;;4.00;3.00;;;;;18.23;90.06;98770.38;6224779;22;45796;-85
2023/10/26 07:16:32;;;;;;;;;4.00;2.75;;;;;17.99;89.90;98770.59;6226352;22;45386;-85
2023/10/26 07:18:58;;;;;;;;;5.50;3.50;;;;;18.23;89.68;98781.13;6226946;22;44912;-84
2023/10/26 07:21:26;;;;;;;;;2.00;1.25;;;;;18.02;89.32;98788.41;6227150;22;47858;-84
2023/10/26 07:23:52;;;;;;;;;7.00;3.00;;;;;18.00;89.20;98793.88;6205011;22;45415;-83
2023/10/26 07:26:18;;;;;;;;;2.00;2.00;;;;;18.13;89.21;98794.16;6256927;22;44701;-84
2023/10/26 07:28:43;;;;;;;;;3.75;2.25;;;;;18.11;88.63;98786.16;6229965;22;45406;-85
2023/10/26 07:31:16;;;;;;;;;2.25;1.75;;;;;18.37;88.39;98801.03;6227363;22;47490;-83
2023/10/26 07:33:41;;;;;;;;;3.75;3.00;;;;;18.09;88.60;98801.50;6226860;22;45581;-82
2023/10/26 07:36:07;;;;;;;;;6.25;4.25;;;;;18.19;88.00;98805.50;6222775;22;45314;-83
2023/10/26 07:38:34;;;;;;;;;5.00;3.25;;;;;18.23;87.57;98805.34;6252189;22;45278;-83
2023/10/26 07:41:03;;;;;;;;;2.25;1.75;;;;;18.29;87.04;98794.28;6226775;22;46816;-84
2023/10/26 07:50:28;;;;;;;;;5.50;3.50;;;;;18.62;86.73;98823.19;6268409;22;44712;-85
2023/10/26 07:52:54;;;;;;;;;9.25;6.00;;;;;18.28;86.40;98844.56;6234801;22;46673;-84
2023/10/26 07:55:19;;;;;;;;;4.50;3.25;;;;;18.23;86.44;98832.25;6235783;22;44750;-84
2023/10/26 07:57:45;;;;;;;;;6.50;3.50;;;;;18.31;86.47;98822.00;6234746;22;45665;-84
2023/10/26 08:00:14;;;;;;;;;2.75;2.00;;;;;18.02;86.14;98778.53;6230867;22;45393;-83
2023/10/26 08:05:59;;;;;;;;;5.75;3.25;;;;;18.45;86.07;98822.19;6196186;23;44734;-85
2023/10/26 08:08:25;;;;;;;;;1.25;1.25;;;;;18.18;85.69;98811.84;6195296;23;44711;-83
2023/10/26 08:10:50;;;;;;;;;2.00;2.00;;;;;18.35;85.68;98837.91;6194685;22;45150;-83
2023/10/26 08:13:16;;;;;;;;;5.75;5.00;;;;;18.34;85.49;98838.88;6196733;22;45446;-85
2023/10/26 08:15:45;;;;;;;;;4.25;2.25;;;;;18.45;85.57;98867.94;6198327;22;45218;-83
2023/10/26 08:18:14;;;;;;;;;4.75;2.00;;;;;18.45;84.36;98865.25;6205719;22;44767;-82
2023/10/26 08:24:23;;;;;;;;;4.75;4.75;;;;;18.95;82.96;98871.84;6204185;22;44878;-89
2023/10/26 08:26:51;;;;;;;;;4.00;4.00;;;;;18.62;83.83;98868.94;6200432;22;45219;-83
2023/10/26 08:29:17;;;;;;;;;5.75;3.75;;;;;18.67;83.03;98864.22;6201063;22;45361;-82
2023/10/26 08:31:54;;;;;;;;;3.25;2.50;;;;;18.85;83.61;98847.19;6179231;22;44919;-83
2023/10/26 08:34:24;;;;;;;;;5.00;4.50;;;;;18.86;82.76;98832.75;6180595;22;45070;-82
2023/10/26 08:36:50;;;;;;;;;3.25;2.25;;;;;18.72;82.08;98840.63;6177669;22;44775;-83
2023/10/26 08:55:04;;;;;;;;;3.00;2.50;;;;;19.46;80.29;98863.84;6210401;22;45079;-82
2023/10/26 08:57:51;;;;;;;;;1.75;1.75;;;;;19.49;80.13;98869.06;6203174;23;44841;-84
2023/10/26 09:00:18;;;;;;;;;3.75;3.75;;;;;19.18;80.32;98879.59;6176895;22;44781;-83
2023/10/26 09:02:45;;;;;;;;;4.00;3.00;;;;;19.30;79.98;98893.41;6178742;22;44842;-82
2023/10/26 09:05:19;;;;;;;;;3.25;3.25;;;;;19.52;79.69;98890.50;6178198;22;45032;-85
2023/10/26 09:07:48;;;;;;;;;3.25;1.25;;;;;19.39;80.16;98869.56;6156727;23;44902;-82
2023/10/26 09:10:37;;;;;;;;;3.75;3.00;;;;;19.57;79.20;98878.50;6182403;23;44759;-82
2023/10/26 09:13:08;;;;;;;;;7.50;3.00;;;;;19.51;79.49;98894.13;6181126;23;44889;-83
2023/10/26 09:15:47;;;;;;;;;2.00;2.00;;;;;19.68;78.66;98886.03;6154940;23;45313;-84
2023/10/26 09:18:20;;;;;;;;;2.00;2.00;;;;;19.58;79.50;98891.03;6179891;23;45060;-85
2023/10/26 09:21:06;;;;;;;;;4.50;2.75;;;;;19.72;78.61;98903.81;6178309;23;44997;-80
2023/10/26 09:23:37;;;;;;;;;2.00;2.00;;;;;19.61;78.73;98911.56;6177258;23;45098;-82
2023/10/26 09:26:10;;;;;;;;;4.00;4.00;;;;;19.71;78.64;98915.59;6205456;23;45695;-80
2023/10/26 09:28:52;;;;;;;;;7.00;4.75;;;;;19.69;78.45;98885.09;6207572;22;44953;-81
2023/10/26 09:31:18;;;;;;;;;3.50;2.00;;;;;19.58;77.94;98903.66;6178796;23;44877;-81
2023/10/26 09:33:45;;;;;;;;;5.00;3.00;;;;;19.67;77.92;98896.88;6182321;22;44864;-82
2023/10/26 09:36:20;;;;;;;;;4.00;3.00;;;;;19.98;77.38;98904.25;6177656;22;45325;-84
2023/10/26 09:38:47;;;;;;;;;5.33;4.67;;;;;19.72;77.49;98913.75;6201577;22;44830;-80
2023/10/26 09:41:20;;;;;;;;;5.25;4.00;;;;;19.75;77.45;98892.88;6149295;23;44853;-81
2023/10/26 09:43:45;;;;;;;;;2.00;2.00;;;;;19.63;76.61;98898.88;6207116;22;44734;-81
2023/10/26 09:46:13;;;;;;;;;3.00;3.00;;;;;19.90;76.14;98930.78;6182147;23;45128;-81
2023/10/26 09:48:42;;;;;;;;;2.25;2.25;;;;;19.72;76.08;98897.56;6209422;22;44826;-80
2023/10/26 09:51:10;;;;;;;;;3.00;2.00;;;;;20.06;76.16;98911.97;6158841;23;44854;-81
2023/10/26 09:53:51;;;;;;;;;6.25;3.50;;;;;20.32;75.20;98907.78;6110188;22;46609;-81
2023/10/26 09:56:22;;;;;;;;;4.25;3.50;;;;;20.30;75.15;98889.00;6240199;22;47130;-80
2023/10/26 10:23:38;;;;;;;;;6.75;4.50;;;;;20.88;72.15;98895.66;6263392;22;44858;-81
2023/10/26 10:26:08;;;;;;;;;5.50;4.50;;;;;20.78;71.74;98878.22;6240581;22;45443;-82
2023/10/26 10:28:50;;;;;;;;;2.00;2.00;;;;;20.96;71.29;98898.78;6264917;22;45423;-81
2023/10/26 10:31:27;;;;;;;;;4.75;4.75;;;;;21.02;70.21;98891.28;6240423;22;45267;-81
2023/10/26 10:37:21;;;;;;;;;3.00;3.00;;;;;21.06;70.52;98904.50;6264868;22;44694;-84
2023/10/26 10:40:22;;;;;;;;;4.00;3.25;;;;;21.16;69.45;98913.81;6237556;22;45399;-85
2023/10/26 10:42:52;;;;;;;;;2.25;1.75;;;;;20.96;69.47;98915.00;6188147;22;45351;-84
2023/10/26 10:45:18;;;;;;;;;2.00;1.75;;;;;20.70;69.78;98889.50;6234944;22;45232;-83
2023/10/26 10:47:49;;;;;;;;;2.25;2.25;;;;;20.90;69.70;98915.34;6237657;22;44715;-85
2023/10/26 10:50:25;;;;;;;;;2.75;2.75;;;;;21.07;68.83;98908.13;6232508;22;45309;-84
2023/10/26 10:52:55;;;;;;;;;6.00;2.00;;;;;20.90;69.50;98920.75;6229094;22;46988;-85
2023/10/26 10:55:29;;;;;;;;;6.75;4.00;;;;;21.05;69.08;98902.78;6229994;22;45434;-84
2023/10/26 10:57:58;;;;;;;;;2.75;2.75;;;;;20.78;69.01;98918.75;6228717;22;45357;-85
2023/10/26 11:00:26;;;;;;;;;2.00;2.00;;;;;20.80;69.76;98881.72;6232863;22;44816;-83
2023/10/26 11:03:00;;;;;;;;;3.50;2.25;;;;;20.89;69.37;98889.28;6260220;22;45278;-84
2023/10/26 11:05:36;;;;;;;;;5.00;3.00;;;;;21.45;69.71;98903.16;6233115;22;45359;-83
2023/10/26 11:08:02;;;;;;;;;5.25;2.50;;;;;21.14;68.56;98907.63;6231077;22;44805;-82
2023/10/26 11:10:33;;;;;;;;;2.25;2.25;;;;;21.46;68.59;98906.75;6207975;22;45464;-83
2023/10/26 11:13:01;;;;;;;;;5.75;3.50;;;;;21.31;68.24;98898.56;6233490;22;47319;-84
2023/10/26 11:15:43;;;;;;;;;6.75;4.50;;;;;21.59;68.45;98894.19;6256217;22;44690;-84
2023/10/26 11:18:16;;;;;;;;;6.25;5.00;;;;;21.31;69.10;98876.03;6208699;22;44721;-85
2023/10/26 11:20:46;;;;;;;;;3.75;3.00;;;;;21.59;68.29;98880.66;6258851;22;44839;-83
2023/10/26 11:23:14;;;;;;;;;2.00;2.00;;;;;21.34;68.00;98843.41;6199791;22;44971;-85
2023/10/26 11:25:41;;;;;;;;;5.25;1.50;;;;;21.65;67.57;98871.31;6203718;22;44716;-84
2023/10/26 11:28:10;;;;;;;;;3.75;2.25;;;;;21.56;67.61;98876.31;6227605;22;45442;-83
2023/10/26 11:30:59;;;;;;;;;4.25;3.00;;;;;21.95;66.53;98887.50;6204519;22;45452;-84
2023/10/26 11:33:43;;;;;;;;;4.50;4.50;;;;;21.76;66.87;98856.16;6211824;22;46722;-86
2023/10/26 11:44:41;;;;;;;;;5.75;3.25;;;;;21.67;66.55;98867.56;6170133;22;46298;-85
2023/10/26 11:47:11;;;;;;;;;7.25;4.00;;;;;21.73;66.75;98841.94;6216876;22;44776;-84
2023/10/26 11:49:41;;;;;;;;;6.75;4.25;;;;;21.87;65.77;98831.13;6187819;22;45081;-82
2023/10/26 11:54:55;;;;;;;;;2.75;2.75;;;;;21.79;65.97;98825.31;6248002;22;45470;-84
2023/10/26 11:57:45;;;;;;;;;8.00;3.50;;;;;21.90;66.04;98827.38;6263466;22;45292;-85
2023/10/26 12:00:21;;;;;;;;;2.00;2.00;;;;;21.74;66.54;98836.44;6229385;22;46758;-85
2023/10/26 12:02:50;;;;;;;;;5.25;3.25;;;;;21.97;65.97;98842.25;6234939;22;44820;-84
2023/10/26 12:05:18;;;;;;;;;2.50;1.75;;;;;21.75;65.47;98813.84;6215447;22;47121;-82
2023/10/26 12:10:24;;;;;;;;;3.00;3.00;;;;;21.77;66.34;98832.66;6192937;22;45371;-83
2023/10/26 12:12:53;;;;;;;;;5.75;3.50;;;;;21.65;65.94;98818.06;6209838;22;44814;-83
2023/10/26 12:15:25;;;;;;;;;2.75;2.25;;;;;21.87;66.08;98824.84;6235291;22;45362;-83
2023/10/26 12:17:55;;;;;;;;;5.00;3.00;;;;;21.98;66.45;98825.06;6209199;22;44810;-84
2023/10/26 12:20:22;;;;;;;;;5.00;3.00;;;;;22.00;65.80;98822.25;6208691;22;44698;-85
2023/10/26 12:22:52;;;;;;;;;4.50;2.25;;;;;21.90;65.55;98824.66;6210045;22;44898;-85
2023/10/26 12:25:17;;;;;;;;;4.75;4.75;;;;;21.91;65.79;98820.97;6206951;22;45248;-84
2023/10/26 12:27:45;;;;;;;;;2.50;2.50;;;;;22.15;66.07;98819.41;6207798;22;44767;-84
2023/10/26 12:30:12;;;;;;;;;3.25;3.25;;;;;22.08;65.64;98812.66;6182120;22;44743;-84
2023/10/26 12:32:38;;;;;;;;;2.50;2.25;;;;;22.17;65.63;98789.53;6206280;22;44821;-85
2023/10/26 12:35:13;;;;;;;;;5.50;4.75;;;;;21.94;64.91;98785.63;6247164;22;45648;-84
2023/10/26 12:37:39;;;;;;;;;5.50;4.00;;;;;21.92;65.28;98795.66;6236463;22;44849;-84
2023/10/26 12:40:08;;;;;;;;;7.00;4.75;;;;;22.06;64.87;98814.59;6237317;22;44749;-84
2023/10/26 12:42:35;;;;;;;;;4.75;4.75;;;;;21.96;65.09;98799.91;6240422;22;44856;-84
2023/10/26 12:45:57;;;;;;;;;3.75;3.75;;;;;22.23;64.54;98794.56;6241097;22;45373;-83
2023/10/26 12:48:43;;;;;;;;;7.00;5.50;;;;;21.89;65.00;98771.50;6244310;22;44734;-84
2023/10/26 12:51:16;;;;;;;;;5.50;3.25;;;;;21.80;65.05;98747.75;6174907;22;47069;-84
2023/10/26 12:53:45;;;;;;;;;5.50;4.00;;;;;21.54;65.71;98758.38;6231784;22;44793;-82
2023/10/26 12:56:11;;;;;;;;;5.25;5.25;;;;;21.53;65.15;98756.63;6229249;22;46617;-82
2023/10/26 12:58:40;;;;;;;;;5.00;4.00;;;;;21.74;65.50;98803.97;6233033;22;44754;-81
2023/10/26 13:04:47;;;;;;;;;5.75;5.00;;;;;22.03;65.24;98786.84;6256694;22;45415;-81
2023/10/26 13:07:13;;;;;;;;;4.50;4.50;;;;;21.76;65.78;98796.63;6232990;22;46658;-81
2023/10/26 13:09:54;;;;;;;;;5.50;3.75;;;;;21.86;66.14;98758.19;6232946;22;45674;-81
2023/10/26 13:12:22;;;;;;;;;4.75;4.00;;;;;21.94;65.68;98772.09;6256594;22;45348;-82
2023/10/26 13:14:48;;;;;;;;;6.25;5.75;;;;;21.81;65.54;98792.75;6255326;22;45541;-82
2023/10/26 13:17:13;;;;;;;;;4.75;3.00;;;;;21.72;65.39;98757.22;6230797;22;46898;-82